X  Sluiten METAR luchtvaart weer gegevens      EHLE Lelystad Airport
Temperatuur
14°C Temperatuur
11°C Dauwpunt
82% Vochtigheid



Wind
11 KM/U
7 MPH
3 M/S
6 KTS



200°
ZZW
Huidig weer

Wat bewolking Wat bewolking
Luchtdruk 1010.84 (hPa) - 29.85 (inHg)
Zicht 6 (mijl) - 9.7 (km)
Vliegveld
Vliegveld code EHLE

Locatie : Lelystad Airport
Afstand: 25 (km)

Metar:
EHLE 222225Z AUTO 20006KT 9999 FEW032 14/11 Q1011

Tijd: 23-05-2024 00:25 CEST